TAF and METAR

Could not understand the following METAR

YPPD 232300Z AUTO 15008KT 9999 // NCD 10/02 Q1022

TAF for Port Hedland International Airport

TAF AMD YPPD 232304Z 2323/2424 13018G28KT CAVOK FM240400 11014KT CAVOK
Report created 24. jun 01:04

between 24. jun 01:00 - 24. jun 02:00

wind 18 knots from SE (130°) with gusts up to 28 knots Clear sky

From 24. jun 06:00

wind 14 knots from ESE (110°) Clear sky